createdAt,value
2018-03-28T00:01:39.612Z,18.90
2018-03-28T00:04:06.978Z,19.30
2018-03-28T00:06:34.356Z,19.60
2018-03-28T00:09:01.750Z,20.80
2018-03-28T00:11:29.145Z,17.07
2018-03-28T00:13:56.525Z,17.30
2018-03-28T00:16:23.879Z,15.97
2018-03-28T00:18:51.264Z,17.00
2018-03-28T00:21:18.668Z,20.33
2018-03-28T00:23:46.047Z,17.03
2018-03-28T00:26:13.389Z,19.00
2018-03-28T00:28:40.783Z,19.40
2018-03-28T00:31:08.136Z,14.50
2018-03-28T00:33:35.548Z,14.40
2018-03-28T00:36:02.892Z,14.93
2018-03-28T00:38:30.253Z,15.33
2018-03-28T00:40:57.590Z,14.07
2018-03-28T00:43:24.979Z,14.80
2018-03-28T00:45:52.423Z,15.37
2018-03-28T00:48:19.815Z,16.13
2018-03-28T00:50:47.151Z,17.03
2018-03-28T00:53:14.488Z,14.43
2018-03-28T00:55:41.851Z,14.53
2018-03-28T00:58:09.199Z,12.20
2018-03-28T01:00:36.587Z,11.57
2018-03-28T01:03:04.338Z,13.07
2018-03-28T01:05:32.306Z,13.57
2018-03-28T01:08:00.179Z,10.77
2018-03-28T01:10:27.950Z,12.43
2018-03-28T01:12:55.918Z,11.83
2018-03-28T01:15:23.887Z,14.37
2018-03-28T01:17:51.958Z,10.83
2018-03-28T01:20:19.830Z,12.30
2018-03-28T01:22:48.106Z,9.97
2018-03-28T01:25:15.866Z,8.27
2018-03-28T01:27:43.838Z,9.90
2018-03-28T01:30:11.698Z,7.43
2018-03-28T01:32:39.678Z,11.87
2018-03-28T01:35:07.738Z,8.57
2018-03-28T01:37:35.720Z,9.10
2018-03-28T01:40:03.778Z,9.27
2018-03-28T01:42:31.648Z,8.97
2018-03-28T01:44:59.518Z,6.83
2018-03-28T01:47:27.378Z,9.67
2018-03-28T01:49:55.558Z,9.27
2018-03-28T01:52:23.454Z,7.37
2018-03-28T01:54:51.598Z,6.83
2018-03-28T01:57:19.458Z,9.57
2018-03-28T01:59:47.546Z,7.03
2018-03-28T02:02:15.406Z,6.63
2018-03-28T02:04:43.478Z,6.97
2018-03-28T02:07:11.137Z,6.87
2018-03-28T02:09:39.098Z,6.97
2018-03-28T02:12:06.866Z,5.33
2018-03-28T02:14:34.838Z,3.80
2018-03-28T02:17:02.686Z,3.40
2018-03-28T02:19:30.658Z,3.63
2018-03-28T02:21:58.546Z,3.13
2018-03-28T02:24:26.506Z,3.60
2018-03-28T02:26:54.306Z,2.77
2018-03-28T02:29:22.138Z,3.90
2018-03-28T02:31:50.061Z,2.33
2018-03-28T02:34:17.978Z,2.43
2018-03-28T02:36:46.238Z,2.70
2018-03-28T02:39:14.239Z,5.17
2018-03-28T02:41:42.447Z,3.37
2018-03-28T02:44:10.559Z,3.17
2018-03-28T02:46:38.807Z,4.00
2018-03-28T02:49:06.887Z,3.10
2018-03-28T02:51:35.199Z,3.90
2018-03-28T02:54:03.159Z,4.13
2018-03-28T02:56:31.119Z,3.90
2018-03-28T02:58:59.000Z,5.47
2018-03-28T03:01:26.758Z,4.00
2018-03-28T03:03:54.647Z,4.33
2018-03-28T03:06:22.598Z,5.20
2018-03-28T03:08:50.014Z,10.20
2018-03-28T03:11:17.389Z,5.40
2018-03-28T03:13:44.768Z,7.10
2018-03-28T03:16:12.198Z,5.50
2018-03-28T03:18:39.532Z,5.27
2018-03-28T03:21:06.894Z,6.20
2018-03-28T03:23:34.230Z,6.23
2018-03-28T03:26:01.619Z,6.73
2018-03-28T03:28:29.073Z,6.73
2018-03-28T03:30:56.431Z,6.50
2018-03-28T03:33:23.761Z,7.00
2018-03-28T03:35:51.126Z,8.77
2018-03-28T03:38:18.595Z,7.07
2018-03-28T03:40:45.966Z,6.67
2018-03-28T03:43:13.426Z,6.17
2018-03-28T03:45:40.778Z,8.13
2018-03-28T03:48:08.150Z,5.53
2018-03-28T03:50:35.507Z,6.30
2018-03-28T03:53:02.844Z,5.80
2018-03-28T03:55:30.283Z,6.37
2018-03-28T03:57:57.612Z,6.23
2018-03-28T04:00:24.960Z,7.20
2018-03-28T04:02:52.302Z,6.90
2018-03-28T04:05:19.657Z,7.60
2018-03-28T04:07:46.995Z,6.17
2018-03-28T04:10:14.331Z,7.83
2018-03-28T04:12:41.685Z,4.87
2018-03-28T04:15:09.019Z,6.33
2018-03-28T04:17:36.366Z,7.70
2018-03-28T04:20:03.729Z,7.10
2018-03-28T04:22:31.098Z,7.00
2018-03-28T04:24:58.451Z,5.13
2018-03-28T04:27:25.898Z,5.10
2018-03-28T04:29:53.231Z,5.63
2018-03-28T04:32:20.595Z,9.87
2018-03-28T04:34:47.923Z,4.40
2018-03-28T04:37:15.266Z,5.63
2018-03-28T04:39:42.598Z,5.73
2018-03-28T04:42:09.954Z,5.20
2018-03-28T04:44:37.276Z,5.87
2018-03-28T04:47:04.633Z,5.70
2018-03-28T04:49:31.962Z,5.83
2018-03-28T04:51:59.324Z,5.00
2018-03-28T04:54:26.698Z,8.70
2018-03-28T04:56:54.157Z,8.30
2018-03-28T04:59:21.494Z,8.93
2018-03-28T05:01:48.967Z,8.80
2018-03-28T05:04:16.356Z,7.83
2018-03-28T05:06:43.680Z,10.00
2018-03-28T05:09:11.138Z,8.37
2018-03-28T05:11:38.507Z,9.97
2018-03-28T05:14:05.847Z,15.90
2018-03-28T05:16:33.305Z,6.03
2018-03-28T05:19:00.640Z,8.90
2018-03-28T05:21:27.994Z,9.67
2018-03-28T05:23:55.337Z,11.03
2018-03-28T05:26:22.726Z,7.37
2018-03-28T05:28:50.066Z,10.77
2018-03-28T05:31:17.417Z,9.83
2018-03-28T05:33:44.754Z,7.40
2018-03-28T05:36:12.259Z,9.80
2018-03-28T05:38:39.586Z,12.77
2018-03-28T05:41:06.923Z,9.20
2018-03-28T05:43:34.278Z,9.83
2018-03-28T05:46:01.597Z,9.50
2018-03-28T05:48:28.973Z,11.37
2018-03-28T05:50:56.340Z,11.23
2018-03-28T05:53:23.703Z,9.90
2018-03-28T05:55:51.045Z,10.50
2018-03-28T05:58:18.414Z,11.83
2018-03-28T06:00:45.768Z,10.07
2018-03-28T06:03:13.151Z,12.30
2018-03-28T06:05:40.511Z,12.70
2018-03-28T06:08:07.870Z,11.87
2018-03-28T06:10:35.219Z,12.33
2018-03-28T06:13:03.455Z,12.30
2018-03-28T06:15:30.794Z,11.10
2018-03-28T06:17:58.153Z,11.70
2018-03-28T06:20:25.493Z,8.53
2018-03-28T06:22:52.841Z,11.23
2018-03-28T06:25:20.184Z,12.20
2018-03-28T06:27:47.684Z,9.57
2018-03-28T06:30:14.995Z,10.10
2018-03-28T06:32:42.432Z,7.43
2018-03-28T06:35:09.766Z,10.67
2018-03-28T06:37:37.142Z,8.27
2018-03-28T06:40:04.475Z,8.70
2018-03-28T06:42:31.845Z,8.83
2018-03-28T06:44:59.170Z,9.67
2018-03-28T06:47:26.522Z,12.23
2018-03-28T06:49:53.889Z,9.47
2018-03-28T06:52:21.248Z,7.40
2018-03-28T06:54:48.575Z,11.10
2018-03-28T06:57:15.981Z,9.97
2018-03-28T06:59:43.311Z,7.33
2018-03-28T07:02:10.673Z,9.10
2018-03-28T07:04:38.044Z,10.70
2018-03-28T07:07:05.383Z,10.80
2018-03-28T07:09:32.744Z,10.10
2018-03-28T07:12:00.082Z,13.90
2018-03-28T07:14:27.441Z,7.80
2018-03-28T07:16:54.773Z,9.13
2018-03-28T07:19:22.130Z,10.43
2018-03-28T07:21:49.475Z,9.27
2018-03-28T07:24:16.854Z,7.70
2018-03-28T07:26:44.181Z,8.67
2018-03-28T07:29:11.539Z,6.73
2018-03-28T07:31:38.866Z,13.80
2018-03-28T07:34:06.226Z,10.17
2018-03-28T07:36:33.555Z,7.30
2018-03-28T07:39:00.914Z,14.50
2018-03-28T07:41:28.370Z,10.27
2018-03-28T07:43:55.732Z,13.60
2018-03-28T07:46:23.070Z,10.43
2018-03-28T07:48:50.453Z,8.70
2018-03-28T07:51:17.791Z,12.20
2018-03-28T07:53:45.171Z,7.90
2018-03-28T07:56:12.506Z,13.50
2018-03-28T07:58:39.874Z,9.30
2018-03-28T08:01:07.229Z,10.43
2018-03-28T08:03:34.599Z,9.50
2018-03-28T08:06:01.928Z,14.33
2018-03-28T08:08:29.295Z,9.93
2018-03-28T08:10:56.640Z,7.53
2018-03-28T08:13:24.015Z,7.50
2018-03-28T08:15:51.442Z,9.00
2018-03-28T08:18:18.800Z,9.40
2018-03-28T08:20:46.136Z,7.97
2018-03-28T08:23:13.494Z,10.23
2018-03-28T08:25:40.870Z,10.30
2018-03-28T08:28:08.299Z,10.23
2018-03-28T08:30:35.659Z,7.70
2018-03-28T08:33:03.028Z,9.90
2018-03-28T08:35:30.397Z,15.23
2018-03-28T08:37:57.736Z,8.03
2018-03-28T08:40:25.114Z,6.40
2018-03-28T08:42:52.444Z,8.20
2018-03-28T08:45:19.818Z,12.30
2018-03-28T08:47:47.190Z,6.83
2018-03-28T08:50:14.555Z,9.40
2018-03-28T08:52:41.888Z,9.50
2018-03-28T08:55:09.248Z,14.20
2018-03-28T08:57:36.679Z,8.03
2018-03-28T09:00:04.056Z,7.93
2018-03-28T09:02:31.415Z,6.87
2018-03-28T09:04:58.769Z,12.27
2018-03-28T09:07:26.111Z,7.00
2018-03-28T09:09:53.463Z,9.57
2018-03-28T09:12:20.809Z,6.10
2018-03-28T09:14:48.158Z,6.30
2018-03-28T09:17:15.524Z,10.13
2018-03-28T09:19:42.974Z,7.17
2018-03-28T09:22:10.305Z,8.53
2018-03-28T09:24:37.694Z,8.50
2018-03-28T09:27:05.072Z,11.00
2018-03-28T09:29:32.459Z,5.53
2018-03-28T09:31:59.798Z,6.43
2018-03-28T09:34:27.161Z,8.90
2018-03-28T09:36:54.492Z,6.17
2018-03-28T09:39:21.929Z,5.73
2018-03-28T09:41:49.293Z,8.93
2018-03-28T09:44:16.671Z,8.73
2018-03-28T09:46:43.998Z,7.37
2018-03-28T09:49:11.370Z,9.60
2018-03-28T09:51:38.735Z,12.00
2018-03-28T09:54:06.146Z,9.53
2018-03-28T09:56:33.520Z,9.57
2018-03-28T09:59:00.848Z,7.40
2018-03-28T10:01:30.054Z,10.83
2018-03-28T10:04:03.210Z,9.23
2018-03-28T10:06:30.584Z,14.07
2018-03-28T10:08:57.914Z,9.53
2018-03-28T10:11:25.273Z,9.60
2018-03-28T10:13:52.678Z,6.50
2018-03-28T10:16:20.035Z,9.07
2018-03-28T10:18:47.356Z,9.17
2018-03-28T10:21:14.720Z,9.30
2018-03-28T10:23:42.068Z,7.83
2018-03-28T10:26:09.417Z,10.90
2018-03-28T10:28:36.757Z,7.43
2018-03-28T10:31:04.148Z,12.37
2018-03-28T10:33:31.528Z,9.10
2018-03-28T10:35:58.908Z,7.77
2018-03-28T10:38:26.230Z,9.47
2018-03-28T10:40:53.588Z,8.30
2018-03-28T10:43:20.941Z,9.57
2018-03-28T10:45:48.379Z,10.13
2018-03-28T10:48:15.733Z,11.93
2018-03-28T10:50:43.092Z,10.90
2018-03-28T10:53:10.432Z,7.67
2018-03-28T10:55:37.815Z,8.60
2018-03-28T10:58:05.158Z,10.03
2018-03-28T11:00:32.610Z,9.70
2018-03-28T11:02:59.959Z,9.90
2018-03-28T11:05:27.422Z,9.40
2018-03-28T11:07:54.757Z,15.80
2018-03-28T11:10:22.115Z,7.13
2018-03-28T11:12:49.473Z,8.97
2018-03-28T11:15:16.843Z,7.57
2018-03-28T11:17:44.171Z,6.60
2018-03-28T11:20:11.532Z,7.70
2018-03-28T11:22:38.861Z,4.93
2018-03-28T11:25:06.251Z,4.13
2018-03-28T11:27:33.617Z,6.17
2018-03-28T11:30:01.093Z,10.07
2018-03-28T11:32:28.457Z,7.77
2018-03-28T11:34:55.787Z,5.07
2018-03-28T11:37:23.139Z,6.47
2018-03-28T11:39:50.599Z,6.57
2018-03-28T11:42:17.959Z,7.73
2018-03-28T11:44:45.302Z,6.13
2018-03-28T11:47:12.762Z,6.90
2018-03-28T11:49:40.092Z,3.00
2018-03-28T11:52:07.445Z,4.53
2018-03-28T11:54:34.770Z,3.00
2018-03-28T11:57:02.139Z,5.50
2018-03-28T11:59:29.490Z,4.00
2018-03-28T12:01:56.892Z,5.77
2018-03-28T12:04:24.242Z,2.60
2018-03-28T12:06:51.704Z,3.73
2018-03-28T12:09:19.058Z,5.20
2018-03-28T12:11:46.406Z,3.03
2018-03-28T12:14:13.766Z,3.73
2018-03-28T12:16:41.150Z,4.23
2018-03-28T12:19:08.483Z,7.70
2018-03-28T12:21:35.847Z,4.63
2018-03-28T12:24:03.183Z,4.63
2018-03-28T12:26:30.534Z,3.00
2018-03-28T12:28:57.901Z,5.10
2018-03-28T12:31:25.258Z,2.40
2018-03-28T12:33:52.591Z,5.70
2018-03-28T12:36:19.956Z,2.90
2018-03-28T12:38:47.287Z,4.20
2018-03-28T12:41:14.648Z,3.83
2018-03-28T12:43:41.978Z,5.30
2018-03-28T12:46:09.333Z,3.67
2018-03-28T12:48:36.663Z,2.87
2018-03-28T12:51:04.042Z,7.03
2018-03-28T12:53:31.369Z,1.50
2018-03-28T12:55:58.805Z,3.80
2018-03-28T12:58:26.164Z,2.87
2018-03-28T13:00:53.496Z,4.47
2018-03-28T13:03:20.874Z,3.57
2018-03-28T13:05:48.199Z,4.80
2018-03-28T13:08:15.801Z,2.80
2018-03-28T13:10:43.139Z,5.83
2018-03-28T13:13:10.494Z,5.37
2018-03-28T13:15:37.819Z,7.73
2018-03-28T13:18:05.176Z,5.27
2018-03-28T13:20:32.495Z,3.67
2018-03-28T13:22:59.910Z,3.03
2018-03-28T13:25:27.238Z,2.50
2018-03-28T13:27:54.603Z,6.13
2018-03-28T13:30:21.934Z,3.40
2018-03-28T13:32:49.287Z,8.60
2018-03-28T13:35:16.609Z,4.33
2018-03-28T13:37:43.964Z,3.23
2018-03-28T13:40:11.302Z,5.17
2018-03-28T13:42:38.700Z,2.40
2018-03-28T13:45:06.040Z,8.77
2018-03-28T13:47:33.404Z,3.83
2018-03-28T13:50:00.729Z,8.90
2018-03-28T13:52:28.093Z,2.80
2018-03-28T13:54:55.471Z,3.13
2018-03-28T13:57:22.877Z,4.90
2018-03-28T13:59:50.192Z,4.93
2018-03-28T14:02:17.558Z,4.70
2018-03-28T14:04:44.886Z,4.30
2018-03-28T14:07:12.247Z,4.93
2018-03-28T14:09:39.571Z,5.30
2018-03-28T14:12:06.935Z,5.57
2018-03-28T14:14:34.360Z,1.73
2018-03-28T14:17:01.714Z,3.53
2018-03-28T14:19:29.072Z,2.23
2018-03-28T14:21:56.439Z,4.23
2018-03-28T14:24:23.787Z,3.40
2018-03-28T14:26:51.119Z,4.30
2018-03-28T14:29:18.483Z,3.17
2018-03-28T14:31:45.849Z,2.77
2018-03-28T14:34:13.203Z,4.47
2018-03-28T14:36:40.540Z,2.50
2018-03-28T14:39:07.909Z,7.23
2018-03-28T14:41:35.254Z,4.63
2018-03-28T14:44:02.637Z,3.67
2018-03-28T14:46:29.974Z,7.13
2018-03-28T14:48:57.330Z,1.57
2018-03-28T14:51:24.661Z,8.73
2018-03-28T14:53:52.024Z,7.90
2018-03-28T14:56:19.355Z,6.10
2018-03-28T14:58:46.706Z,4.90
2018-03-28T15:01:14.104Z,3.73
2018-03-28T15:03:41.476Z,3.67
2018-03-28T15:06:08.812Z,5.63
2018-03-28T15:08:36.171Z,10.80
2018-03-28T15:11:03.530Z,2.53
2018-03-28T15:13:30.891Z,8.20
2018-03-28T15:15:58.222Z,5.40
2018-03-28T15:18:25.590Z,5.63
2018-03-28T15:20:52.930Z,7.20
2018-03-28T15:23:20.298Z,4.13
2018-03-28T15:25:47.630Z,2.80
2018-03-28T15:28:14.992Z,6.10
2018-03-28T15:30:42.314Z,3.80
2018-03-28T15:33:09.674Z,2.73
2018-03-28T15:35:37.003Z,3.83
2018-03-28T15:38:04.354Z,1.93
2018-03-28T15:40:31.686Z,2.87
2018-03-28T15:42:59.100Z,3.70
2018-03-28T15:45:26.413Z,1.60
2018-03-28T15:47:53.777Z,4.53
2018-03-28T15:50:21.106Z,2.93
2018-03-28T15:52:48.430Z,4.10
2018-03-28T15:55:15.794Z,4.50
2018-03-28T15:57:43.126Z,3.67
2018-03-28T16:00:10.505Z,4.57
2018-03-28T16:02:37.832Z,1.27
2018-03-28T16:05:05.187Z,2.33
2018-03-28T16:07:33.833Z,3.90
2018-03-28T16:10:02.085Z,4.10
2018-03-28T16:12:29.411Z,1.90
2018-03-28T16:14:56.762Z,2.07
2018-03-28T16:17:24.102Z,1.30
2018-03-28T16:19:51.466Z,3.67
2018-03-28T16:22:18.782Z,5.07
2018-03-28T16:24:46.145Z,4.97
2018-03-28T16:27:13.468Z,1.53
2018-03-28T16:29:40.817Z,2.27
2018-03-28T16:32:08.163Z,5.70
2018-03-28T16:34:39.098Z,1.33
2018-03-28T16:37:06.433Z,2.07
2018-03-28T16:39:33.837Z,4.80
2018-03-28T16:42:01.167Z,3.60
2018-03-28T16:44:28.525Z,3.23
2018-03-28T16:46:55.868Z,1.17
2018-03-28T16:49:23.234Z,1.30
2018-03-28T16:51:50.564Z,1.73
2018-03-28T16:54:17.974Z,6.47
2018-03-28T16:56:45.305Z,3.80
2018-03-28T16:59:12.668Z,3.80
2018-03-28T17:01:40.024Z,2.50
2018-03-28T17:04:07.385Z,3.10
2018-03-28T17:06:34.715Z,2.80
2018-03-28T17:09:02.067Z,1.37
2018-03-28T17:11:29.398Z,3.73
2018-03-28T17:13:56.754Z,5.13
2018-03-28T17:16:24.078Z,2.83
2018-03-28T17:18:51.407Z,1.47
2018-03-28T17:21:18.758Z,2.13
2018-03-28T17:23:46.116Z,4.07
2018-03-28T17:26:13.482Z,1.30
2018-03-28T17:28:40.823Z,3.27
2018-03-28T17:31:08.175Z,1.67
2018-03-28T17:33:35.514Z,7.77
2018-03-28T17:36:02.862Z,5.50
2018-03-28T17:38:30.192Z,1.80
2018-03-28T17:40:57.545Z,2.00
2018-03-28T17:43:24.882Z,2.27
2018-03-28T17:45:52.235Z,3.77
2018-03-28T17:48:19.570Z,3.07
2018-03-28T17:50:47.184Z,1.90
2018-03-28T17:53:14.588Z,2.30
2018-03-28T17:55:41.943Z,1.63
2018-03-28T17:58:09.278Z,5.30
2018-03-28T18:00:36.626Z,7.00
2018-03-28T18:03:03.958Z,1.63
2018-03-28T18:05:31.316Z,1.60
2018-03-28T18:07:58.638Z,1.73
2018-03-28T18:10:25.982Z,3.70
2018-03-28T18:12:53.322Z,1.47
2018-03-28T18:15:20.674Z,1.90
2018-03-28T18:17:47.994Z,5.63
2018-03-28T18:20:15.321Z,1.40
2018-03-28T18:22:42.681Z,1.40
2018-03-28T18:25:10.020Z,1.30
2018-03-28T18:27:37.414Z,2.13
2018-03-28T18:30:04.719Z,2.27
2018-03-28T18:32:32.359Z,1.57
2018-03-28T18:35:00.565Z,3.10
2018-03-28T18:37:28.534Z,1.27
2018-03-28T18:39:55.914Z,2.07
2018-03-28T18:42:23.298Z,1.40
2018-03-28T18:44:50.622Z,2.17
2018-03-28T18:47:17.979Z,2.37
2018-03-28T18:49:45.327Z,5.87
2018-03-28T18:52:12.687Z,0.80
2018-03-28T18:54:40.013Z,1.20
2018-03-28T18:57:07.435Z,5.60
2018-03-28T18:59:34.757Z,7.67
2018-03-28T19:02:02.126Z,6.47
2018-03-28T19:04:29.454Z,2.40
2018-03-28T19:06:56.832Z,1.43
2018-03-28T19:09:24.188Z,3.00
2018-03-28T19:11:51.559Z,1.30
2018-03-28T19:14:18.920Z,2.17
2018-03-28T19:16:46.246Z,1.30
2018-03-28T19:19:13.602Z,1.07
2018-03-28T19:21:40.924Z,4.40
2018-03-28T19:24:08.343Z,1.17
2018-03-28T19:26:35.677Z,2.87
2018-03-28T19:29:03.052Z,1.63
2018-03-28T19:31:30.390Z,1.63
2018-03-28T19:33:57.768Z,2.50
2018-03-28T19:36:25.094Z,3.63
2018-03-28T19:38:52.578Z,3.40
2018-03-28T19:41:19.904Z,1.90
2018-03-28T19:43:47.263Z,1.30
2018-03-28T19:46:14.588Z,2.27
2018-03-28T19:48:42.535Z,1.90
2018-03-28T19:51:09.850Z,1.60
2018-03-28T19:53:37.212Z,2.60
2018-03-28T19:56:04.774Z,2.10
2018-03-28T19:58:32.238Z,1.33
2018-03-28T20:00:59.572Z,1.47
2018-03-28T20:03:26.905Z,1.30
2018-03-28T20:05:54.249Z,1.23
2018-03-28T20:08:21.589Z,2.73
2018-03-28T20:10:49.115Z,1.57
2018-03-28T20:13:16.473Z,1.50
2018-03-28T20:15:43.823Z,1.83
2018-03-28T20:18:11.149Z,1.23
2018-03-28T20:20:38.514Z,1.90
2018-03-28T20:23:06.046Z,3.23
2018-03-28T20:25:33.398Z,1.20
2018-03-28T20:28:00.742Z,1.10
2018-03-28T20:30:28.105Z,1.13
2018-03-28T20:32:55.441Z,1.00
2018-03-28T20:35:22.796Z,2.63
2018-03-28T20:37:50.131Z,1.83
2018-03-28T20:40:17.478Z,1.50
2018-03-28T20:42:44.928Z,1.93
2018-03-28T20:45:12.310Z,1.30
2018-03-28T20:47:39.660Z,1.70
2018-03-28T20:50:06.999Z,1.23
2018-03-28T20:52:34.398Z,0.97
2018-03-28T20:55:01.731Z,1.53
2018-03-28T20:57:29.095Z,3.23
2018-03-28T20:59:56.447Z,1.50
2018-03-28T21:02:23.807Z,1.67
2018-03-28T21:04:51.138Z,1.60
2018-03-28T21:07:18.487Z,1.40
2018-03-28T21:09:45.823Z,2.00
2018-03-28T21:12:13.179Z,3.97
2018-03-28T21:14:40.522Z,2.10
2018-03-28T21:17:08.024Z,2.00
2018-03-28T21:19:35.348Z,2.17
2018-03-28T21:22:02.700Z,2.73
2018-03-28T21:24:30.052Z,2.90
2018-03-28T21:26:57.399Z,3.73
2018-03-28T21:29:24.760Z,2.90
2018-03-28T21:31:52.096Z,3.23
2018-03-28T21:34:19.461Z,3.40
2018-03-28T21:36:46.788Z,4.80
2018-03-28T21:39:14.153Z,3.07
2018-03-28T21:41:41.475Z,4.60
2018-03-28T21:44:08.830Z,3.00
2018-03-28T21:46:36.157Z,2.10
2018-03-28T21:49:03.515Z,2.27
2018-03-28T21:51:30.889Z,2.50
2018-03-28T21:53:58.243Z,1.73
2018-03-28T21:56:25.569Z,2.00
2018-03-28T21:58:52.947Z,2.10
2018-03-28T22:01:20.274Z,1.70
2018-03-28T22:03:47.627Z,1.43
2018-03-28T22:06:14.980Z,2.00
2018-03-28T22:08:42.311Z,2.70
2018-03-28T22:11:09.660Z,1.70
2018-03-28T22:13:36.985Z,1.60
2018-03-28T22:16:04.335Z,3.63
2018-03-28T22:18:31.658Z,1.60
2018-03-28T22:20:59.019Z,1.20
2018-03-28T22:23:26.351Z,1.37
2018-03-28T22:25:53.835Z,1.83
2018-03-28T22:28:21.163Z,2.13
2018-03-28T22:30:48.523Z,1.60
2018-03-28T22:33:15.851Z,1.80
2018-03-28T22:35:43.236Z,1.77
2018-03-28T22:38:10.562Z,1.70
2018-03-28T22:40:37.917Z,2.83
2018-03-28T22:43:05.242Z,1.77
2018-03-28T22:45:32.571Z,1.77
2018-03-28T22:47:59.921Z,1.77
2018-03-28T22:50:27.297Z,1.87
2018-03-28T22:52:54.652Z,2.00
2018-03-28T22:55:22.098Z,3.73
2018-03-28T22:57:49.450Z,3.37
2018-03-28T23:00:16.773Z,1.37
2018-03-28T23:02:44.127Z,1.67
2018-03-28T23:05:11.457Z,3.17
2018-03-28T23:07:38.816Z,1.67
2018-03-28T23:10:06.152Z,1.60
2018-03-28T23:12:33.526Z,1.53
2018-03-28T23:15:00.854Z,2.03
2018-03-28T23:17:28.210Z,2.03
2018-03-28T23:19:55.544Z,1.90
2018-03-28T23:22:28.746Z,1.77
2018-03-28T23:24:56.073Z,2.53
2018-03-28T23:27:23.426Z,1.83
2018-03-28T23:29:50.775Z,2.60
2018-03-28T23:32:18.099Z,2.10
2018-03-28T23:34:45.453Z,2.10
2018-03-28T23:37:12.782Z,4.13
2018-03-28T23:39:40.139Z,2.40
2018-03-28T23:42:07.460Z,1.80
2018-03-28T23:44:34.815Z,2.30
2018-03-28T23:47:02.147Z,2.47
2018-03-28T23:49:29.495Z,2.03
2018-03-28T23:51:56.819Z,2.10
2018-03-28T23:54:24.174Z,3.90
2018-03-28T23:56:51.502Z,3.10
2018-03-28T23:59:18.852Z,2.33
